Terminal Aerodrome Forecast
Issued by NWS

Current Version | Previous Version | Text Only | Print | Product List | Glossary On
Versions: 1 2 3 4 5 6 7 8 9 10 11 12 13 14 15 16 17
000
FTUS44 KBMX 262327
TAFANB
TAF
KANB 262327Z 2700/2724 23007KT P6SM VCSH BKN050
     FM270200 32009G18KT P6SM VCSH SCT015 OVC040
      TEMPO 2703/2705 OVC015
     FM270500 33010KT P6SM VCSH SCT008 OVC015
      TEMPO 2705/2708 OVC007
     FM271400 34010KT P6SM SCT025=

USA.gov is the U.S. government's official web portal to all federal, state and local government web resources and services.